Scout — WCZ2046 — position and weather

sailwx.info

Track history (hours):
 
Tides and Currents Weather Stations Pressure Air Temp Water Temp Dewpoint Dewpoint Depression Visibility Wind Speed Wind Dir Waves Ship Positions

Scout

Owner: Crowley Marine Services, SEATTLE, WA. More information available from US FCC via Universal Licensing System and Coast Guard Vessel Documentation Center.

Last reported at 2016-Oct-01 14:32 UTC. Time now 2016-Oct-01 15:32 UTC.
Position N 32°42' W 117°09'.

; draft 5.6 m.

Type: Tug. MMSI: 366764730.

Date/timePositionNaut miles runAvg speedWind from/ knotsBaromVisibWave heightAir tempDewpointWater temp
2016-Oct-01 14:32N 32°42' W 117°09'0 0.0
2016-Oct-01 13:28N 32°42' W 117°09'0 0.0
2016-Oct-01 04:31N 32°42' W 117°09'0 0.0
2016-Oct-01 03:33N 32°42' W 117°09'0 0.0
2016-Oct-01 00:33N 32°42' W 117°09'0 0.0
2016-Sep-30 22:33N 32°42' W 117°09'0 0.0
2016-Sep-30 20:31N 32°42' W 117°09'0 0.0
2016-Sep-30 17:33N 32°42' W 117°09'0 0.0
2016-Sep-30 16:30N 32°42' W 117°09'0 0.0
2016-Sep-30 14:34N 32°42' W 117°09'0 0.0
2016-Sep-30 13:34N 32°42' W 117°09'0 0.0
2016-Sep-30 10:34N 32°42' W 117°09'0 0.0
2016-Sep-30 08:32N 32°42' W 117°09'0 0.0
2016-Sep-30 06:33N 32°42' W 117°09'0 0.0
2016-Sep-30 03:34N 32°42' W 117°09'0 0.0
2016-Sep-30 02:30N 32°42' W 117°09'0 0.0
2016-Sep-29 23:31N 32°42' W 117°09'0 0.0
2016-Sep-29 21:33N 32°42' W 117°09'3 3.2
2016-Sep-29 20:33N 32°43' W 117°13'3 3.1
2016-Sep-29 19:33N 32°42' W 117°09'0 0.1
2016-Sep-29 16:32N 32°42' W 117°09'0 0.0
2016-Sep-29 15:33N 32°42' W 117°09'0 0.1
2016-Sep-29 14:33N 32°42' W 117°09'0 0.1
2016-Sep-29 13:33N 32°42' W 117°09'0 0.0
2016-Sep-29 08:34N 32°42' W 117°09'0 0.1
2016-Sep-29 07:34N 32°42' W 117°09'0 0.0
2016-Sep-29 00:32N 32°42' W 117°09'0 0.0
2016-Sep-28 21:33N 32°42' W 117°09'0 0.0
2016-Sep-28 19:33N 32°42' W 117°09'0 0.0
2016-Sep-28 16:33N 32°42' W 117°09'0 0.0
2016-Sep-28 15:33N 32°42' W 117°09'0 0.0
2016-Sep-28 12:33N 32°42' W 117°09'0 0.0
2016-Sep-28 08:33N 32°42' W 117°09'0 0.0
2016-Sep-28 03:33N 32°42' W 117°09'0 0.0
2016-Sep-28 02:33N 32°42' W 117°09'0 0.0
2016-Sep-28 01:33N 32°42' W 117°09'0 0.0
2016-Sep-27 23:33N 32°42' W 117°09'0 0.0
2016-Sep-27 19:34N 32°42' W 117°09'0 0.0
2016-Sep-27 14:34N 32°42' W 117°09'3 2.8
2016-Sep-27 13:33N 32°39' W 117°07'3 0.9
2016-Sep-27 10:33N 32°42' W 117°09'3 0.3
2016-Sep-27 00:30N 32°39' W 117°07'3 0.9
2016-Sep-26 20:33N 32°42' W 117°09'0 0.1
2016-Sep-26 19:34N 32°42' W 117°09'0 0.0
2016-Sep-26 15:34N 32°42' W 117°09'0 0.0
2016-Sep-26 13:34N 32°42' W 117°09'0 0.0
2016-Sep-26 11:33N 32°42' W 117°09'0 0.0
2016-Sep-26 08:33N 32°42' W 117°09'0 0.0
2016-Sep-26 02:33N 32°42' W 117°09'0 0.0
2016-Sep-26 01:33N 32°42' W 117°09'0 0.0
2016-Sep-26 00:24N 32°42' W 117°09'0 0.0
2016-Sep-25 17:29N 32°42' W 117°09'0 0.0
2016-Sep-25 16:31N 32°42' W 117°09'0 0.0
2016-Sep-25 15:33N 32°42' W 117°09'0 0.0
2016-Sep-25 14:28N 32°42' W 117°09'0 0.0
2016-Sep-25 12:33N 32°42' W 117°09'0 0.0
2016-Sep-25 11:34N 32°42' W 117°09'0 0.1
2016-Sep-25 10:33N 32°42' W 117°09'2 1.6
2016-Sep-25 09:33N 32°41' W 117°08'2 0.8
2016-Sep-25 07:30N 32°42' W 117°09'0 0.0
2016-Sep-25 00:12N 32°42' W 117°09'0 0.0
2016-Sep-24 22:20N 32°42' W 117°09'0 0.0
2016-Sep-24 21:33N 32°42' W 117°09'0 0.0
2016-Sep-24 18:18N 32°42' W 117°09'0 0.0
2016-Sep-24 17:29N 32°42' W 117°09'0 0.0
2016-Sep-24 16:33N 32°42' W 117°09'0 0.0
2016-Sep-24 14:33N 32°42' W 117°09'0 0.0
2016-Sep-24 12:29N 32°42' W 117°09'0 0.0
2016-Sep-24 10:33N 32°42' W 117°09'0 0.0
2016-Sep-24 09:33N 32°42' W 117°09'0 0.0
2016-Sep-24 03:32N 32°42' W 117°09'0 0.0
2016-Sep-24 02:31N 32°42' W 117°09'0 0.0
2016-Sep-24 01:21N 32°42' W 117°09'1 0.6
2016-Sep-24 00:24N 32°42' W 117°10'1 0.1
2016-Sep-23 19:09N 32°42' W 117°09'1 0.3
2016-Sep-23 17:34N 32°42' W 117°10'1 0.6
2016-Sep-23 16:33N 32°42' W 117°09'0 0.0
2016-Sep-23 15:30N 32°42' W 117°09'0 0.0
2016-Sep-23 13:24N 32°42' W 117°09'0 0.0
2016-Sep-23 09:33N 32°42' W 117°09'0 0.0
2016-Sep-23 06:34N 32°42' W 117°09'1 0.6
2016-Sep-23 04:33N 32°42' W 117°10'1 1.2
2016-Sep-23 03:34N 32°42' W 117°09'0 0.0
2016-Sep-23 02:34N 32°42' W 117°09'0 0.0
2016-Sep-23 01:33N 32°42' W 117°09'0 0.0
2016-Sep-23 00:34N 32°42' W 117°09'0 0.0
2016-Sep-22 23:33N 32°42' W 117°09'0 0.0
2016-Sep-22 20:33N 32°42' W 117°09'0 0.0
2016-Sep-22 12:33N 32°42' W 117°09'0 0.0
2016-Sep-22 04:34N 32°42' W 117°09'0 0.0
2016-Sep-22 03:33N 32°42' W 117°09'2 0.8
2016-Sep-22 00:34N 32°43' W 117°11'2 2.1
2016-Sep-21 23:27N 32°42' W 117°09'0 0.0
2016-Sep-21 22:28N 32°42' W 117°09'0 0.0
2016-Sep-21 19:31N 32°42' W 117°09'  
Track history (hours):
 
Tides and Currents Weather Stations Pressure Air Temp Water Temp Dewpoint Dewpoint Depression Visibility Wind Speed Wind Dir Waves Ship Positions

Scout

Owner: Crowley Marine Services, SEATTLE, WA. More information available from US FCC via Universal Licensing System and Coast Guard Vessel Documentation Center.

Last reported at 2016-Oct-01 14:32 UTC. Time now 2016-Oct-01 15:32 UTC.
Position N 32°42' W 117°09'.

; draft 5.6 m.

Type: Tug. MMSI: 366764730.

Date/timePositionNaut miles runAvg speedWind from/ knotsBaromVisibWave heightAir tempDewpointWater temp
2016-Oct-01 14:32N 32°42' W 117°09'0 0.0
2016-Oct-01 13:28N 32°42' W 117°09'0 0.0
2016-Oct-01 04:31N 32°42' W 117°09'0 0.0
2016-Oct-01 03:33N 32°42' W 117°09'0 0.0
2016-Oct-01 00:33N 32°42' W 117°09'0 0.0
2016-Sep-30 22:33N 32°42' W 117°09'0 0.0
2016-Sep-30 20:31N 32°42' W 117°09'0 0.0
2016-Sep-30 17:33N 32°42' W 117°09'0 0.0
2016-Sep-30 16:30N 32°42' W 117°09'0 0.0
2016-Sep-30 14:34N 32°42' W 117°09'0 0.0
2016-Sep-30 13:34N 32°42' W 117°09'0 0.0
2016-Sep-30 10:34N 32°42' W 117°09'0 0.0
2016-Sep-30 08:32N 32°42' W 117°09'0 0.0
2016-Sep-30 06:33N 32°42' W 117°09'0 0.0
2016-Sep-30 03:34N 32°42' W 117°09'0 0.0
2016-Sep-30 02:30N 32°42' W 117°09'0 0.0
2016-Sep-29 23:31N 32°42' W 117°09'0 0.0
2016-Sep-29 21:33N 32°42' W 117°09'3 3.2
2016-Sep-29 20:33N 32°43' W 117°13'3 3.1
2016-Sep-29 19:33N 32°42' W 117°09'0 0.1
2016-Sep-29 16:32N 32°42' W 117°09'0 0.0
2016-Sep-29 15:33N 32°42' W 117°09'0 0.1
2016-Sep-29 14:33N 32°42' W 117°09'0 0.1
2016-Sep-29 13:33N 32°42' W 117°09'0 0.0
2016-Sep-29 08:34N 32°42' W 117°09'0 0.1
2016-Sep-29 07:34N 32°42' W 117°09'0 0.0
2016-Sep-29 00:32N 32°42' W 117°09'0 0.0
2016-Sep-28 21:33N 32°42' W 117°09'0 0.0
2016-Sep-28 19:33N 32°42' W 117°09'0 0.0
2016-Sep-28 16:33N 32°42' W 117°09'0 0.0
2016-Sep-28 15:33N 32°42' W 117°09'0 0.0
2016-Sep-28 12:33N 32°42' W 117°09'0 0.0
2016-Sep-28 08:33N 32°42' W 117°09'0 0.0
2016-Sep-28 03:33N 32°42' W 117°09'0 0.0
2016-Sep-28 02:33N 32°42' W 117°09'0 0.0
2016-Sep-28 01:33N 32°42' W 117°09'0 0.0
2016-Sep-27 23:33N 32°42' W 117°09'0 0.0
2016-Sep-27 19:34N 32°42' W 117°09'0 0.0
2016-Sep-27 14:34N 32°42' W 117°09'3 2.8
2016-Sep-27 13:33N 32°39' W 117°07'3 0.9
2016-Sep-27 10:33N 32°42' W 117°09'3 0.3
2016-Sep-27 00:30N 32°39' W 117°07'3 0.9
2016-Sep-26 20:33N 32°42' W 117°09'0 0.1
2016-Sep-26 19:34N 32°42' W 117°09'0 0.0
2016-Sep-26 15:34N 32°42' W 117°09'0 0.0
2016-Sep-26 13:34N 32°42' W 117°09'0 0.0
2016-Sep-26 11:33N 32°42' W 117°09'0 0.0
2016-Sep-26 08:33N 32°42' W 117°09'0 0.0
2016-Sep-26 02:33N 32°42' W 117°09'0 0.0
2016-Sep-26 01:33N 32°42' W 117°09'0 0.0
2016-Sep-26 00:24N 32°42' W 117°09'0 0.0
2016-Sep-25 17:29N 32°42' W 117°09'0 0.0
2016-Sep-25 16:31N 32°42' W 117°09'0 0.0
2016-Sep-25 15:33N 32°42' W 117°09'0 0.0
2016-Sep-25 14:28N 32°42' W 117°09'0 0.0
2016-Sep-25 12:33N 32°42' W 117°09'0 0.0
2016-Sep-25 11:34N 32°42' W 117°09'0 0.1
2016-Sep-25 10:33N 32°42' W 117°09'2 1.6
2016-Sep-25 09:33N 32°41' W 117°08'2 0.8
2016-Sep-25 07:30N 32°42' W 117°09'0 0.0
2016-Sep-25 00:12N 32°42' W 117°09'0 0.0
2016-Sep-24 22:20N 32°42' W 117°09'0 0.0
2016-Sep-24 21:33N 32°42' W 117°09'0 0.0
2016-Sep-24 18:18N 32°42' W 117°09'0 0.0
2016-Sep-24 17:29N 32°42' W 117°09'0 0.0
2016-Sep-24 16:33N 32°42' W 117°09'0 0.0
2016-Sep-24 14:33N 32°42' W 117°09'0 0.0
2016-Sep-24 12:29N 32°42' W 117°09'0 0.0
2016-Sep-24 10:33N 32°42' W 117°09'0 0.0
2016-Sep-24 09:33N 32°42' W 117°09'0 0.0
2016-Sep-24 03:32N 32°42' W 117°09'0 0.0
2016-Sep-24 02:31N 32°42' W 117°09'0 0.0
2016-Sep-24 01:21N 32°42' W 117°09'1 0.6
2016-Sep-24 00:24N 32°42' W 117°10'1 0.1
2016-Sep-23 19:09N 32°42' W 117°09'1 0.3
2016-Sep-23 17:34N 32°42' W 117°10'1 0.6
2016-Sep-23 16:33N 32°42' W 117°09'0 0.0
2016-Sep-23 15:30N 32°42' W 117°09'0 0.0
2016-Sep-23 13:24N 32°42' W 117°09'0 0.0
2016-Sep-23 09:33N 32°42' W 117°09'0 0.0
2016-Sep-23 06:34N 32°42' W 117°09'1 0.6
2016-Sep-23 04:33N 32°42' W 117°10'1 1.2
2016-Sep-23 03:34N 32°42' W 117°09'0 0.0
2016-Sep-23 02:34N 32°42' W 117°09'0 0.0
2016-Sep-23 01:33N 32°42' W 117°09'0 0.0
2016-Sep-23 00:34N 32°42' W 117°09'0 0.0
2016-Sep-22 23:33N 32°42' W 117°09'0 0.0
2016-Sep-22 20:33N 32°42' W 117°09'0 0.0
2016-Sep-22 12:33N 32°42' W 117°09'0 0.0
2016-Sep-22 04:34N 32°42' W 117°09'0 0.0
2016-Sep-22 03:33N 32°42' W 117°09'2 0.8
2016-Sep-22 00:34N 32°43' W 117°11'2 2.1
2016-Sep-21 23:27N 32°42' W 117°09'0 0.0
2016-Sep-21 22:28N 32°42' W 117°09'0 0.0
2016-Sep-21 19:31N 32°42' W 117°09'  

Dump ship's entire track history